sensor_id;sensor_type;location;lat;lon;timestamp;pressure;altitude;pressure_sealevel;temperature;humidity
41044;BME280;51680;49.806;18.774;2023-12-29T00:01:48;97312.28;;;11.10;67.81
41044;BME280;51680;49.806;18.774;2023-12-29T00:04:49;97298.94;;;11.15;67.88
41044;BME280;51680;49.806;18.774;2023-12-29T00:07:51;97305.00;;;11.15;67.44
41044;BME280;51680;49.806;18.774;2023-12-29T00:10:53;97304.78;;;11.18;67.27
41044;BME280;51680;49.806;18.774;2023-12-29T00:13:54;97300.31;;;11.20;67.06
41044;BME280;51680;49.806;18.774;2023-12-29T00:16:57;97287.03;;;11.23;67.18
41044;BME280;51680;49.806;18.774;2023-12-29T00:20:00;97286.31;;;11.21;66.94
41044;BME280;51680;49.806;18.774;2023-12-29T00:23:01;97268.81;;;11.22;67.09
41044;BME280;51680;49.806;18.774;2023-12-29T00:26:03;97282.75;;;11.22;67.50
41044;BME280;51680;49.806;18.774;2023-12-29T00:29:05;97260.28;;;11.20;67.27
41044;BME280;51680;49.806;18.774;2023-12-29T00:32:09;97263.59;;;11.22;66.69
41044;BME280;51680;49.806;18.774;2023-12-29T00:35:10;97257.75;;;11.18;66.96
41044;BME280;51680;49.806;18.774;2023-12-29T00:38:12;97258.59;;;11.19;66.44
41044;BME280;51680;49.806;18.774;2023-12-29T00:41:14;97258.69;;;11.17;66.53
41044;BME280;51680;49.806;18.774;2023-12-29T00:44:16;97263.94;;;11.17;67.03
41044;BME280;51680;49.806;18.774;2023-12-29T00:47:19;97264.25;;;11.25;66.96
41044;BME280;51680;49.806;18.774;2023-12-29T00:50:20;97257.13;;;11.27;66.93
41044;BME280;51680;49.806;18.774;2023-12-29T00:53:22;97255.03;;;11.32;66.43
41044;BME280;51680;49.806;18.774;2023-12-29T00:56:24;97248.13;;;11.31;66.77
41044;BME280;51680;49.806;18.774;2023-12-29T00:59:25;97260.97;;;11.34;66.90
41044;BME280;51680;49.806;18.774;2023-12-29T01:02:28;97270.41;;;11.37;67.04
41044;BME280;51680;49.806;18.774;2023-12-29T01:05:30;97260.97;;;11.34;67.54
41044;BME280;51680;49.806;18.774;2023-12-29T01:08:32;97263.28;;;11.39;67.75
41044;BME280;51680;49.806;18.774;2023-12-29T01:11:33;97268.41;;;11.40;68.22
41044;BME280;51680;49.806;18.774;2023-12-29T01:14:35;97259.81;;;11.38;68.08
41044;BME280;51680;49.806;18.774;2023-12-29T01:17:38;97266.53;;;11.42;68.24
41044;BME280;51680;49.806;18.774;2023-12-29T01:20:40;97263.28;;;11.39;68.45
41044;BME280;51680;49.806;18.774;2023-12-29T01:23:42;97269.03;;;11.44;68.44
41044;BME280;51680;49.806;18.774;2023-12-29T01:26:44;97257.72;;;11.43;68.88
41044;BME280;51680;49.806;18.774;2023-12-29T01:29:46;97258.69;;;11.42;68.72
41044;BME280;51680;49.806;18.774;2023-12-29T01:32:49;97259.44;;;11.44;68.93
41044;BME280;51680;49.806;18.774;2023-12-29T01:35:51;97249.38;;;11.38;68.83
41044;BME280;51680;49.806;18.774;2023-12-29T01:38:52;97243.22;;;11.39;68.76
41044;BME280;51680;49.806;18.774;2023-12-29T01:41:55;97233.69;;;11.38;68.93
41044;BME280;51680;49.806;18.774;2023-12-29T01:44:56;97230.91;;;11.29;69.22
41044;BME280;51680;49.806;18.774;2023-12-29T01:47:59;97225.56;;;11.30;68.69
41044;BME280;51680;49.806;18.774;2023-12-29T01:51:01;97219.94;;;11.24;69.23
41044;BME280;51680;49.806;18.774;2023-12-29T01:54:03;97218.91;;;11.14;69.75
41044;BME280;51680;49.806;18.774;2023-12-29T01:57:05;97209.59;;;10.97;70.12
41044;BME280;51680;49.806;18.774;2023-12-29T02:00:10;97206.47;;;10.80;70.78
41044;BME280;51680;49.806;18.774;2023-12-29T02:03:16;97212.31;;;10.83;70.29
41044;BME280;51680;49.806;18.774;2023-12-29T02:06:19;97217.97;;;10.77;70.51
41044;BME280;51680;49.806;18.774;2023-12-29T02:09:21;97214.69;;;10.74;70.50
41044;BME280;51680;49.806;18.774;2023-12-29T02:12:24;97229.13;;;10.79;70.20
41044;BME280;51680;49.806;18.774;2023-12-29T02:15:26;97214.31;;;10.80;69.56
41044;BME280;51680;49.806;18.774;2023-12-29T02:18:30;97206.44;;;10.67;69.85
41044;BME280;51680;49.806;18.774;2023-12-29T02:21:32;97202.78;;;10.57;69.03
41044;BME280;51680;49.806;18.774;2023-12-29T02:24:34;97195.44;;;10.37;69.27
41044;BME280;51680;49.806;18.774;2023-12-29T02:27:44;97192.31;;;10.32;69.57
41044;BME280;51680;49.806;18.774;2023-12-29T02:30:52;97183.53;;;10.33;68.57
41044;BME280;51680;49.806;18.774;2023-12-29T02:33:55;97165.25;;;10.21;68.63
41044;BME280;51680;49.806;18.774;2023-12-29T02:36:58;97175.41;;;10.25;67.83
41044;BME280;51680;49.806;18.774;2023-12-29T02:40:01;97176.38;;;10.37;67.22
41044;BME280;51680;49.806;18.774;2023-12-29T02:43:04;97169.78;;;10.44;66.63
41044;BME280;51680;49.806;18.774;2023-12-29T02:46:06;97172.09;;;10.48;66.14
41044;BME280;51680;49.806;18.774;2023-12-29T02:49:08;97174.59;;;10.50;65.76
41044;BME280;51680;49.806;18.774;2023-12-29T02:52:13;97171.88;;;10.51;64.57
41044;BME280;51680;49.806;18.774;2023-12-29T02:55:14;97166.47;;;10.54;64.97
41044;BME280;51680;49.806;18.774;2023-12-29T02:58:19;97159.34;;;10.56;64.55
41044;BME280;51680;49.806;18.774;2023-12-29T03:01:20;97174.59;;;10.62;64.75
41044;BME280;51680;49.806;18.774;2023-12-29T03:04:22;97166.66;;;10.64;63.73
41044;BME280;51680;49.806;18.774;2023-12-29T03:07:24;97165.00;;;10.63;64.21
41044;BME280;51680;49.806;18.774;2023-12-29T03:10:25;97173.69;;;10.63;64.05
41044;BME280;51680;49.806;18.774;2023-12-29T03:13:30;97181.09;;;10.69;63.93
41044;BME280;51680;49.806;18.774;2023-12-29T03:16:31;97170.66;;;10.69;64.00
41044;BME280;51680;49.806;18.774;2023-12-29T03:19:33;97173.16;;;10.71;63.69
41044;BME280;51680;49.806;18.774;2023-12-29T03:22:34;97163.31;;;10.74;63.30
41044;BME280;51680;49.806;18.774;2023-12-29T03:25:36;97158.00;;;10.63;63.40
41044;BME280;51680;49.806;18.774;2023-12-29T03:28:39;97162.91;;;10.68;63.67
41044;BME280;51680;49.806;18.774;2023-12-29T03:31:41;97149.94;;;10.66;63.64
41044;BME280;51680;49.806;18.774;2023-12-29T03:34:43;97143.91;;;10.66;63.67
41044;BME280;51680;49.806;18.774;2023-12-29T03:37:44;97156.63;;;10.70;62.93
41044;BME280;51680;49.806;18.774;2023-12-29T03:40:47;97148.09;;;10.68;63.96
41044;BME280;51680;49.806;18.774;2023-12-29T03:43:50;97146.00;;;10.73;63.46
41044;BME280;51680;49.806;18.774;2023-12-29T03:46:52;97143.50;;;10.72;63.22
41044;BME280;51680;49.806;18.774;2023-12-29T03:49:54;97147.56;;;10.76;63.76
41044;BME280;51680;49.806;18.774;2023-12-29T03:52:55;97139.63;;;10.77;63.39
41044;BME280;51680;49.806;18.774;2023-12-29T03:55:57;97143.47;;;10.84;63.46
41044;BME280;51680;49.806;18.774;2023-12-29T03:59:00;97144.00;;;10.89;62.91
41044;BME280;51680;49.806;18.774;2023-12-29T04:02:02;97150.78;;;10.92;62.52
41044;BME280;51680;49.806;18.774;2023-12-29T04:05:05;97125.28;;;10.95;62.44
41044;BME280;51680;49.806;18.774;2023-12-29T04:08:08;97117.97;;;11.00;62.51
41044;BME280;51680;49.806;18.774;2023-12-29T04:11:09;97106.50;;;10.90;61.95
41044;BME280;51680;49.806;18.774;2023-12-29T04:14:13;97118.00;;;10.88;62.19
41044;BME280;51680;49.806;18.774;2023-12-29T04:17:15;97113.41;;;10.79;62.59
41044;BME280;51680;49.806;18.774;2023-12-29T04:20:17;97128.34;;;10.77;62.78
41044;BME280;51680;49.806;18.774;2023-12-29T04:23:19;97125.50;;;10.67;63.47
41044;BME280;51680;49.806;18.774;2023-12-29T04:26:21;97117.69;;;10.67;62.39
41044;BME280;51680;49.806;18.774;2023-12-29T04:29:25;97122.81;;;10.69;62.86
41044;BME280;51680;49.806;18.774;2023-12-29T04:32:26;97127.41;;;10.65;63.15
41044;BME280;51680;49.806;18.774;2023-12-29T04:35:28;97124.28;;;10.60;62.54
41044;BME280;51680;49.806;18.774;2023-12-29T04:38:30;97122.50;;;10.73;62.39
41044;BME280;51680;49.806;18.774;2023-12-29T04:41:32;97119.06;;;10.73;62.49
41044;BME280;51680;49.806;18.774;2023-12-29T04:44:35;97121.13;;;10.80;62.88
41044;BME280;51680;49.806;18.774;2023-12-29T04:47:37;97121.97;;;10.81;62.72
41044;BME280;51680;49.806;18.774;2023-12-29T04:50:39;97120.09;;;10.83;62.95
41044;BME280;51680;49.806;18.774;2023-12-29T04:53:40;97109.09;;;10.90;63.25
41044;BME280;51680;49.806;18.774;2023-12-29T04:56:42;97113.19;;;10.94;63.08
41044;BME280;51680;49.806;18.774;2023-12-29T04:59:45;97104.81;;;11.02;63.60
41044;BME280;51680;49.806;18.774;2023-12-29T05:02:47;97102.09;;;11.03;63.52
41044;BME280;51680;49.806;18.774;2023-12-29T05:05:48;97090.69;;;11.04;64.22
41044;BME280;51680;49.806;18.774;2023-12-29T05:08:50;97096.44;;;11.09;64.36
41044;BME280;51680;49.806;18.774;2023-12-29T05:11:52;97091.09;;;11.11;64.33
41044;BME280;51680;49.806;18.774;2023-12-29T05:14:55;97082.41;;;11.10;64.60
41044;BME280;51680;49.806;18.774;2023-12-29T05:17:57;97085.03;;;11.10;64.32
41044;BME280;51680;49.806;18.774;2023-12-29T05:20:59;97091.44;;;11.06;64.84
41044;BME280;51680;49.806;18.774;2023-12-29T05:24:00;97089.56;;;10.96;65.40
41044;BME280;51680;49.806;18.774;2023-12-29T05:27:03;97077.06;;;10.88;65.48
41044;BME280;51680;49.806;18.774;2023-12-29T05:30:06;97090.81;;;10.90;65.55
41044;BME280;51680;49.806;18.774;2023-12-29T05:33:08;97094.91;;;10.94;65.24
41044;BME280;51680;49.806;18.774;2023-12-29T05:36:10;97100.09;;;11.07;64.59
41044;BME280;51680;49.806;18.774;2023-12-29T05:39:12;97101.25;;;11.15;64.46
41044;BME280;51680;49.806;18.774;2023-12-29T05:42:14;97117.94;;;11.25;65.52
41044;BME280;51680;49.806;18.774;2023-12-29T05:45:17;97127.09;;;11.31;65.54
41044;BME280;51680;49.806;18.774;2023-12-29T05:48:19;97147.25;;;11.41;65.08
41044;BME280;51680;49.806;18.774;2023-12-29T05:51:21;97139.81;;;11.48;64.82
41044;BME280;51680;49.806;18.774;2023-12-29T05:54:23;97150.16;;;11.49;65.32
41044;BME280;51680;49.806;18.774;2023-12-29T05:57:25;97161.53;;;11.48;65.67
41044;BME280;51680;49.806;18.774;2023-12-29T06:00:28;97148.81;;;11.44;66.04
41044;BME280;51680;49.806;18.774;2023-12-29T06:03:30;97157.34;;;11.46;65.57
41044;BME280;51680;49.806;18.774;2023-12-29T06:06:31;97152.38;;;11.43;65.87
41044;BME280;51680;49.806;18.774;2023-12-29T06:09:33;97166.25;;;11.43;66.00
41044;BME280;51680;49.806;18.774;2023-12-29T06:12:35;97168.50;;;11.37;66.80
41044;BME280;51680;49.806;18.774;2023-12-29T06:15:38;97169.50;;;11.34;66.79
41044;BME280;51680;49.806;18.774;2023-12-29T06:18:40;97168.78;;;11.32;66.84
41044;BME280;51680;49.806;18.774;2023-12-29T06:21:41;97166.19;;;11.32;67.00
41044;BME280;51680;49.806;18.774;2023-12-29T06:24:44;97171.22;;;11.35;66.64
41044;BME280;51680;49.806;18.774;2023-12-29T06:27:46;97168.25;;;11.40;66.85
41044;BME280;51680;49.806;18.774;2023-12-29T06:30:49;97171.63;;;11.42;66.72
41044;BME280;51680;49.806;18.774;2023-12-29T06:33:51;97164.59;;;11.42;66.63
41044;BME280;51680;49.806;18.774;2023-12-29T06:36:53;97157.50;;;11.44;66.54
41044;BME280;51680;49.806;18.774;2023-12-29T06:39:54;97148.97;;;11.53;66.19
41044;BME280;51680;49.806;18.774;2023-12-29T06:42:56;97134.78;;;11.45;66.33
41044;BME280;51680;49.806;18.774;2023-12-29T06:45:59;97132.06;;;11.46;66.10
41044;BME280;51680;49.806;18.774;2023-12-29T06:49:01;97120.72;;;11.35;66.31
41044;BME280;51680;49.806;18.774;2023-12-29T06:52:03;97135.97;;;11.28;66.69
41044;BME280;51680;49.806;18.774;2023-12-29T06:55:06;97130.19;;;11.12;66.64
41044;BME280;51680;49.806;18.774;2023-12-29T06:58:08;97126.94;;;11.09;67.19
41044;BME280;51680;49.806;18.774;2023-12-29T07:01:11;97126.53;;;11.15;66.32
41044;BME280;51680;49.806;18.774;2023-12-29T07:04:12;97127.63;;;11.23;65.90
41044;BME280;51680;49.806;18.774;2023-12-29T07:07:15;97133.34;;;11.41;65.78
41044;BME280;51680;49.806;18.774;2023-12-29T07:10:17;97108.69;;;12.26;63.47
41044;BME280;51680;49.806;18.774;2023-12-29T07:13:19;97108.06;;;13.23;60.71
41044;BME280;51680;49.806;18.774;2023-12-29T07:16:22;97112.53;;;13.43;59.50
41044;BME280;51680;49.806;18.774;2023-12-29T07:19:24;97121.41;;;13.09;60.12
41044;BME280;51680;49.806;18.774;2023-12-29T07:22:26;97123.50;;;12.71;61.10
41044;BME280;51680;49.806;18.774;2023-12-29T07:25:28;97121.78;;;12.37;61.87
41044;BME280;51680;49.806;18.774;2023-12-29T07:28:30;97132.53;;;12.11;62.90
41044;BME280;51680;49.806;18.774;2023-12-29T07:31:38;97128.41;;;11.85;62.98
41044;BME280;51680;49.806;18.774;2023-12-29T07:34:39;97133.44;;;11.75;63.81
41044;BME280;51680;49.806;18.774;2023-12-29T07:37:41;97133.66;;;11.72;63.84
41044;BME280;51680;49.806;18.774;2023-12-29T07:40:43;97142.13;;;11.76;63.87
41044;BME280;51680;49.806;18.774;2023-12-29T07:43:45;97135.72;;;11.80;63.62
41044;BME280;51680;49.806;18.774;2023-12-29T07:46:48;97139.91;;;11.82;63.75
41044;BME280;51680;49.806;18.774;2023-12-29T07:49:50;97142.53;;;11.82;63.78
41044;BME280;51680;49.806;18.774;2023-12-29T07:52:51;97145.28;;;11.92;63.32
41044;BME280;51680;49.806;18.774;2023-12-29T07:55:53;97156.59;;;11.92;63.33
41044;BME280;51680;49.806;18.774;2023-12-29T07:58:55;97153.44;;;12.00;63.08
41044;BME280;51680;49.806;18.774;2023-12-29T08:01:58;97145.22;;;12.04;63.17
41044;BME280;51680;49.806;18.774;2023-12-29T08:04:59;97137.94;;;11.97;63.25
41044;BME280;51680;49.806;18.774;2023-12-29T08:08:01;97134.97;;;12.01;62.94
41044;BME280;51680;49.806;18.774;2023-12-29T08:11:03;97138.06;;;11.95;63.05
41044;BME280;51680;49.806;18.774;2023-12-29T08:14:05;97140.44;;;11.98;62.31
41044;BME280;51680;49.806;18.774;2023-12-29T08:17:10;97160.47;;;12.10;62.88
41044;BME280;51680;49.806;18.774;2023-12-29T08:20:12;97158.19;;;12.06;62.76
41044;BME280;51680;49.806;18.774;2023-12-29T08:23:13;97148.63;;;12.17;62.43
41044;BME280;51680;49.806;18.774;2023-12-29T08:26:15;97159.38;;;12.25;62.31
41044;BME280;51680;49.806;18.774;2023-12-29T08:29:36;97158.56;;;12.47;61.82
41044;BME280;51680;49.806;18.774;2023-12-29T08:32:39;97160.53;;;12.78;61.46
41044;BME280;51680;49.806;18.774;2023-12-29T08:35:41;97152.47;;;12.92;60.63
41044;BME280;51680;49.806;18.774;2023-12-29T08:38:43;97152.34;;;12.93;60.24
41044;BME280;51680;49.806;18.774;2023-12-29T08:41:47;97157.63;;;13.15;60.27
41044;BME280;51680;49.806;18.774;2023-12-29T08:44:49;97155.22;;;13.34;59.83
41044;BME280;51680;49.806;18.774;2023-12-29T08:47:53;97150.22;;;13.42;59.41
41044;BME280;51680;49.806;18.774;2023-12-29T08:50:54;97164.53;;;13.38;59.53
41044;BME280;51680;49.806;18.774;2023-12-29T08:53:56;97146.66;;;13.32;59.58
41044;BME280;51680;49.806;18.774;2023-12-29T08:56:58;97142.19;;;13.97;57.83
41044;BME280;51680;49.806;18.774;2023-12-29T08:59:59;97137.63;;;14.83;56.65
41044;BME280;51680;49.806;18.774;2023-12-29T09:03:03;97135.25;;;16.36;53.46
41044;BME280;51680;49.806;18.774;2023-12-29T09:06:05;97130.84;;;16.27;53.05
41044;BME280;51680;49.806;18.774;2023-12-29T09:09:09;97130.25;;;16.71;51.60
41044;BME280;51680;49.806;18.774;2023-12-29T09:12:13;97125.03;;;17.44;50.38
41044;BME280;51680;49.806;18.774;2023-12-29T09:15:15;97131.56;;;17.67;49.71
41044;BME280;51680;49.806;18.774;2023-12-29T09:18:18;97137.53;;;17.42;49.07
41044;BME280;51680;49.806;18.774;2023-12-29T09:21:19;97135.69;;;17.52;47.87
41044;BME280;51680;49.806;18.774;2023-12-29T09:24:21;97131.75;;;17.83;48.88
41044;BME280;51680;49.806;18.774;2023-12-29T09:27:23;97123.97;;;17.82;48.53
41044;BME280;51680;49.806;18.774;2023-12-29T09:30:24;97124.47;;;17.31;48.76
41044;BME280;51680;49.806;18.774;2023-12-29T09:33:27;97110.91;;;17.80;48.48
41044;BME280;51680;49.806;18.774;2023-12-29T09:36:29;97111.63;;;18.35;47.25
41044;BME280;51680;49.806;18.774;2023-12-29T09:39:31;97101.34;;;18.32;46.71
41044;BME280;51680;49.806;18.774;2023-12-29T09:42:35;97104.53;;;18.79;46.25
41044;BME280;51680;49.806;18.774;2023-12-29T09:45:37;97105.41;;;18.87;45.46
41044;BME280;51680;49.806;18.774;2023-12-29T09:48:42;97095.06;;;18.51;45.09
41044;BME280;51680;49.806;18.774;2023-12-29T09:51:47;97092.06;;;18.46;46.65
41044;BME280;51680;49.806;18.774;2023-12-29T09:54:51;97101.03;;;18.17;46.83
41044;BME280;51680;49.806;18.774;2023-12-29T09:57:54;97104.75;;;18.07;47.49
41044;BME280;51680;49.806;18.774;2023-12-29T10:00:57;97097.78;;;17.88;48.24
41044;BME280;51680;49.806;18.774;2023-12-29T10:04:00;97089.94;;;17.61;48.49
41044;BME280;51680;49.806;18.774;2023-12-29T10:07:04;97085.78;;;17.22;48.39
41044;BME280;51680;49.806;18.774;2023-12-29T10:10:13;97100.22;;;16.91;48.38
41044;BME280;51680;49.806;18.774;2023-12-29T10:13:17;97098.53;;;16.54;50.38
41044;BME280;51680;49.806;18.774;2023-12-29T10:16:24;97085.88;;;16.57;49.95
41044;BME280;51680;49.806;18.774;2023-12-29T10:19:37;97082.53;;;16.55;49.31
41044;BME280;51680;49.806;18.774;2023-12-29T10:22:46;97087.56;;;16.39;50.02
41044;BME280;51680;49.806;18.774;2023-12-29T10:25:50;97082.31;;;16.11;50.74
41044;BME280;51680;49.806;18.774;2023-12-29T10:28:52;97065.00;;;16.08;51.24
41044;BME280;51680;49.806;18.774;2023-12-29T10:31:54;97056.22;;;16.27;51.00
41044;BME280;51680;49.806;18.774;2023-12-29T10:35:08;97049.00;;;16.38;49.28
41044;BME280;51680;49.806;18.774;2023-12-29T10:38:11;97059.53;;;16.48;50.35
41044;BME280;51680;49.806;18.774;2023-12-29T10:41:14;97058.84;;;16.36;50.32
41044;BME280;51680;49.806;18.774;2023-12-29T10:44:16;97059.44;;;16.21;50.41
41044;BME280;51680;49.806;18.774;2023-12-29T10:47:19;97046.13;;;16.13;50.55
41044;BME280;51680;49.806;18.774;2023-12-29T10:50:22;97045.47;;;15.92;50.56
41044;BME280;51680;49.806;18.774;2023-12-29T10:53:24;97062.34;;;15.80;51.45
41044;BME280;51680;49.806;18.774;2023-12-29T10:56:25;97067.63;;;15.89;51.51
41044;BME280;51680;49.806;18.774;2023-12-29T10:59:28;97071.91;;;15.90;51.49
41044;BME280;51680;49.806;18.774;2023-12-29T11:02:30;97073.16;;;15.67;51.59
41044;BME280;51680;49.806;18.774;2023-12-29T11:05:34;97072.31;;;15.67;51.80
41044;BME280;51680;49.806;18.774;2023-12-29T11:08:35;97068.00;;;15.56;51.99
41044;BME280;51680;49.806;18.774;2023-12-29T11:11:38;97059.16;;;15.57;52.31
41044;BME280;51680;49.806;18.774;2023-12-29T11:14:41;97068.66;;;15.39;52.23
41044;BME280;51680;49.806;18.774;2023-12-29T11:17:49;97065.34;;;15.37;52.57
41044;BME280;51680;49.806;18.774;2023-12-29T11:20:54;97067.78;;;15.29;52.90
41044;BME280;51680;49.806;18.774;2023-12-29T11:23:57;97070.78;;;15.15;52.71
41044;BME280;51680;49.806;18.774;2023-12-29T11:27:00;97076.28;;;15.03;53.31
41044;BME280;51680;49.806;18.774;2023-12-29T11:30:04;97078.72;;;14.95;53.20
41044;BME280;51680;49.806;18.774;2023-12-29T11:33:10;97067.13;;;14.97;53.56
41044;BME280;51680;49.806;18.774;2023-12-29T11:36:18;97053.03;;;14.98;53.76
41044;BME280;51680;49.806;18.774;2023-12-29T11:39:27;97063.50;;;14.89;53.82
41044;BME280;51680;49.806;18.774;2023-12-29T11:42:35;97041.03;;;14.75;53.57
41044;BME280;51680;49.806;18.774;2023-12-29T11:45:39;97035.06;;;14.73;53.57
41044;BME280;51680;49.806;18.774;2023-12-29T11:48:54;97030.22;;;14.69;52.84
41044;BME280;51680;49.806;18.774;2023-12-29T11:51:57;97021.28;;;14.51;53.26
41044;BME280;51680;49.806;18.774;2023-12-29T11:55:07;97026.41;;;14.52;52.94
41044;BME280;51680;49.806;18.774;2023-12-29T11:58:23;97030.00;;;14.51;53.47
41044;BME280;51680;49.806;18.774;2023-12-29T12:01:33;97017.66;;;14.42;53.18
41044;BME280;51680;49.806;18.774;2023-12-29T12:04:36;97024.13;;;14.38;53.77
41044;BME280;51680;49.806;18.774;2023-12-29T12:07:59;97025.44;;;14.23;53.06
41044;BME280;51680;49.806;18.774;2023-12-29T12:11:41;97025.84;;;14.08;52.45
41044;BME280;51680;49.806;18.774;2023-12-29T12:14:51;97020.78;;;13.95;52.54
41044;BME280;51680;49.806;18.774;2023-12-29T12:17:53;97005.09;;;13.84;52.92
41044;BME280;51680;49.806;18.774;2023-12-29T12:20:55;97023.03;;;13.79;53.25
41044;BME280;51680;49.806;18.774;2023-12-29T12:23:59;97025.38;;;13.82;52.71
41044;BME280;51680;49.806;18.774;2023-12-29T12:27:01;97031.13;;;13.76;52.25
41044;BME280;51680;49.806;18.774;2023-12-29T12:30:04;97051.59;;;13.93;53.11
41044;BME280;51680;49.806;18.774;2023-12-29T12:33:06;97033.38;;;14.01;52.92
41044;BME280;51680;49.806;18.774;2023-12-29T12:36:11;97038.31;;;13.95;52.87
41044;BME280;51680;49.806;18.774;2023-12-29T12:39:14;97029.22;;;13.99;52.61
41044;BME280;51680;49.806;18.774;2023-12-29T12:42:16;97038.63;;;14.01;52.50
41044;BME280;51680;49.806;18.774;2023-12-29T12:45:20;97037.63;;;13.93;52.32
41044;BME280;51680;49.806;18.774;2023-12-29T12:48:23;97034.97;;;13.72;52.20
41044;BME280;51680;49.806;18.774;2023-12-29T12:51:26;97049.00;;;13.82;53.12
41044;BME280;51680;49.806;18.774;2023-12-29T12:54:29;97048.66;;;13.76;52.96
41044;BME280;51680;49.806;18.774;2023-12-29T12:57:31;97050.19;;;13.78;53.11
41044;BME280;51680;49.806;18.774;2023-12-29T13:00:33;97041.63;;;13.76;53.39
41044;BME280;51680;49.806;18.774;2023-12-29T13:03:37;97043.56;;;13.74;53.20
41044;BME280;51680;49.806;18.774;2023-12-29T13:06:40;97051.28;;;13.76;53.39
41044;BME280;51680;49.806;18.774;2023-12-29T13:09:44;97044.03;;;13.68;53.44
41044;BME280;51680;49.806;18.774;2023-12-29T13:12:54;97031.44;;;13.62;53.23
41044;BME280;51680;49.806;18.774;2023-12-29T13:15:56;97035.75;;;13.52;53.84
41044;BME280;51680;49.806;18.774;2023-12-29T13:19:15;97035.44;;;13.46;53.21
41044;BME280;51680;49.806;18.774;2023-12-29T13:22:17;97025.56;;;13.38;54.51
41044;BME280;51680;49.806;18.774;2023-12-29T13:25:24;97043.22;;;13.36;53.83
41044;BME280;51680;49.806;18.774;2023-12-29T13:28:28;97025.34;;;13.30;54.24
41044;BME280;51680;49.806;18.774;2023-12-29T13:31:31;97037.31;;;13.12;54.88
41044;BME280;51680;49.806;18.774;2023-12-29T13:34:37;97035.88;;;13.08;55.09
41044;BME280;51680;49.806;18.774;2023-12-29T13:37:45;97046.88;;;13.02;55.21
41044;BME280;51680;49.806;18.774;2023-12-29T13:40:54;97024.47;;;12.98;55.63
41044;BME280;51680;49.806;18.774;2023-12-29T13:43:58;97019.44;;;12.95;55.98
41044;BME280;51680;49.806;18.774;2023-12-29T13:47:01;97022.06;;;12.84;56.16
41044;BME280;51680;49.806;18.774;2023-12-29T13:50:04;97021.34;;;12.82;56.07
41044;BME280;51680;49.806;18.774;2023-12-29T13:53:06;97010.88;;;12.71;56.39
41044;BME280;51680;49.806;18.774;2023-12-29T13:56:10;97007.81;;;12.66;56.85
41044;BME280;51680;49.806;18.774;2023-12-29T13:59:12;97013.16;;;12.54;57.19
41044;BME280;51680;49.806;18.774;2023-12-29T14:02:23;97012.56;;;12.39;57.82
41044;BME280;51680;49.806;18.774;2023-12-29T14:05:28;97009.22;;;12.48;57.33
41044;BME280;51680;49.806;18.774;2023-12-29T14:08:33;97012.56;;;12.39;57.81
41044;BME280;51680;49.806;18.774;2023-12-29T14:11:45;97019.44;;;12.29;58.31
41044;BME280;51680;49.806;18.774;2023-12-29T14:14:46;97015.28;;;12.27;58.22
41044;BME280;51680;49.806;18.774;2023-12-29T14:17:48;97002.09;;;12.28;58.04
41044;BME280;51680;49.806;18.774;2023-12-29T14:20:50;97008.88;;;12.20;58.88
41044;BME280;51680;49.806;18.774;2023-12-29T14:24:08;97026.91;;;12.12;59.90
41044;BME280;51680;49.806;18.774;2023-12-29T14:27:12;97034.19;;;12.08;58.77
41044;BME280;51680;49.806;18.774;2023-12-29T14:30:18;97033.47;;;12.06;59.42
41044;BME280;51680;49.806;18.774;2023-12-29T14:33:21;97023.44;;;12.00;59.29
41044;BME280;51680;49.806;18.774;2023-12-29T14:36:23;97028.69;;;12.00;58.95
41044;BME280;51680;49.806;18.774;2023-12-29T14:39:24;97030.22;;;12.03;59.16
41044;BME280;51680;49.806;18.774;2023-12-29T14:42:27;97037.47;;;11.99;59.62
41044;BME280;51680;49.806;18.774;2023-12-29T14:45:29;97041.88;;;11.99;59.48
41044;BME280;51680;49.806;18.774;2023-12-29T14:48:31;97037.47;;;11.99;59.27
41044;BME280;51680;49.806;18.774;2023-12-29T14:51:33;97048.53;;;11.92;59.92
41044;BME280;51680;49.806;18.774;2023-12-29T14:54:34;97051.00;;;11.82;60.08
41044;BME280;51680;49.806;18.774;2023-12-29T14:57:37;97045.78;;;11.82;60.08
41044;BME280;51680;49.806;18.774;2023-12-29T15:00:39;97061.88;;;11.76;60.21
41044;BME280;51680;49.806;18.774;2023-12-29T15:03:42;97062.13;;;11.73;60.22
41044;BME280;51680;49.806;18.774;2023-12-29T15:06:43;97069.03;;;11.74;60.46
41044;BME280;51680;49.806;18.774;2023-12-29T15:09:45;97072.81;;;11.70;60.68
41044;BME280;51680;49.806;18.774;2023-12-29T15:12:48;97078.25;;;11.67;60.89
41044;BME280;51680;49.806;18.774;2023-12-29T15:15:50;97079.69;;;11.71;60.74
41044;BME280;51680;49.806;18.774;2023-12-29T15:18:52;97081.59;;;11.69;61.16
41044;BME280;51680;49.806;18.774;2023-12-29T15:21:53;97083.97;;;11.72;60.78
41044;BME280;51680;49.806;18.774;2023-12-29T15:24:55;97085.66;;;11.73;60.56
41044;BME280;51680;49.806;18.774;2023-12-29T15:27:59;97085.22;;;11.79;60.58
41044;BME280;51680;49.806;18.774;2023-12-29T15:31:00;97085.09;;;11.81;60.48
41044;BME280;51680;49.806;18.774;2023-12-29T15:34:02;97089.03;;;11.86;60.93
41044;BME280;51680;49.806;18.774;2023-12-29T15:37:04;97085.50;;;11.87;60.93
41044;BME280;51680;49.806;18.774;2023-12-29T15:40:07;97079.19;;;11.90;60.70
41044;BME280;51680;49.806;18.774;2023-12-29T15:43:10;97073.63;;;11.94;60.17
41044;BME280;51680;49.806;18.774;2023-12-29T15:46:13;97071.00;;;11.94;60.37
41044;BME280;51680;49.806;18.774;2023-12-29T15:49:15;97060.75;;;11.91;60.12
41044;BME280;51680;49.806;18.774;2023-12-29T15:52:16;97065.50;;;11.86;60.84
41044;BME280;51680;49.806;18.774;2023-12-29T15:55:18;97055.03;;;11.86;60.43
41044;BME280;51680;49.806;18.774;2023-12-29T15:58:21;97050.66;;;11.87;60.64